Time;durP1;ratioP1;P1;durP2;ratioP2;P2;SDS_P1;SDS_P2;PMS_P1;PMS_P2;Temp;Humidity;BMP_temperature;BMP_pressure;BME280_temperature;BME280_humidity;BME280_pressure;Samples;Min_cycle;Max_cycle;Signal;HPM_P1;HPM_P2
2023/06/21 00:00:46;;;;;;;18.13;8.07;;;;;;;;;;5066603;28;20213;-64
2023/06/21 00:03:13;;;;;;;15.45;6.82;;;;;;;;;;5069786;28;20279;-64
2023/06/21 00:05:41;;;;;;;11.18;6.38;;;;;;;;;;5071236;28;20209;-63
2023/06/21 00:08:08;;;;;;;18.85;6.30;;;;;;;;;;5074553;28;20201;-64
2023/06/21 00:10:36;;;;;;;13.20;6.43;;;;;;;;;;5072487;28;20230;-65
2023/06/21 00:13:03;;;;;;;16.42;6.63;;;;;;;;;;5071868;28;20229;-64
2023/06/21 00:15:30;;;;;;;10.55;5.57;;;;;;;;;;5071188;28;20205;-64
2023/06/21 00:17:58;;;;;;;9.45;5.43;;;;;;;;;;5062643;28;20201;-64
2023/06/21 00:20:25;;;;;;;10.02;5.45;;;;;;;;;;5072642;28;20211;-64
2023/06/21 00:22:55;;;;;;;14.40;5.18;;;;;;;;;;5080496;28;20217;-64
2023/06/21 00:25:26;;;;;;;8.95;5.72;;;;;;;;;;5067463;28;20201;-64
2023/06/21 00:27:53;;;;;;;12.70;6.50;;;;;;;;;;5078823;28;20205;-64
2023/06/21 00:30:21;;;;;;;15.27;6.03;;;;;;;;;;5064879;28;20306;-64
2023/06/21 00:32:48;;;;;;;13.50;6.13;;;;;;;;;;5067034;28;20221;-64
2023/06/21 00:35:15;;;;;;;13.82;6.53;;;;;;;;;;5074641;28;20193;-64
2023/06/21 00:37:44;;;;;;;9.32;5.78;;;;;;;;;;5063160;28;20197;-64
2023/06/21 00:40:12;;;;;;;12.93;6.30;;;;;;;;;;5066207;28;20213;-64
2023/06/21 00:42:39;;;;;;;9.63;6.15;;;;;;;;;;5063073;28;20243;-64
2023/06/21 00:45:09;;;;;;;11.07;6.07;;;;;;;;;;5045542;28;20209;-64
2023/06/21 00:47:40;;;;;;;11.93;6.63;;;;;;;;;;5063598;28;20220;-64
2023/06/21 00:50:07;;;;;;;11.77;6.72;;;;;;;;;;5062810;28;20225;-64
2023/06/21 00:52:37;;;;;;;14.05;6.88;;;;;;;;;;5055236;28;20217;-64
2023/06/21 00:55:05;;;;;;;8.45;6.10;;;;;;;;;;5059309;28;20210;-64
2023/06/21 00:57:33;;;;;;;9.43;6.32;;;;;;;;;;5061904;28;21321;-65
2023/06/21 01:00:01;;;;;;;10.90;6.22;;;;;;;;;;5060428;28;20209;-64
2023/06/21 01:02:28;;;;;;;14.85;6.38;;;;;;;;;;5047996;28;20229;-64
2023/06/21 01:04:55;;;;;;;14.02;6.53;;;;;;;;;;5069039;28;20197;-64
2023/06/21 01:07:45;;;;;;;11.15;5.50;;;;;;;;;;5064693;28;20201;-64
2023/06/21 01:10:16;;;;;;;11.68;6.68;;;;;;;;;;5071256;28;20228;-64
2023/06/21 01:13:04;;;;;;;14.15;6.65;;;;;;;;;;5066855;28;20257;-64
2023/06/21 01:15:37;;;;;;;14.38;7.10;;;;;;;;;;5068568;28;20200;-63
2023/06/21 01:18:06;;;;;;;12.88;6.00;;;;;;;;;;5063708;28;20201;-64
2023/06/21 01:20:35;;;;;;;11.68;5.88;;;;;;;;;;5065023;28;20216;-63
2023/06/21 01:23:09;;;;;;;10.55;6.13;;;;;;;;;;5057980;28;20226;-64
2023/06/21 01:25:48;;;;;;;11.00;6.40;;;;;;;;;;5058774;28;20335;-63
2023/06/21 01:28:31;;;;;;;10.88;6.55;;;;;;;;;;5072662;28;20208;-63
2023/06/21 01:30:59;;;;;;;11.18;7.00;;;;;;;;;;5065812;28;20268;-64
2023/06/21 01:33:27;;;;;;;11.30;6.25;;;;;;;;;;5065678;28;20240;-63
2023/06/21 01:35:55;;;;;;;11.15;7.30;;;;;;;;;;5078453;28;20634;-63
2023/06/21 01:38:24;;;;;;;9.27;7.10;;;;;;;;;;5069786;28;20210;-63
2023/06/21 01:40:51;;;;;;;11.73;7.30;;;;;;;;;;5063221;28;20749;-63
2023/06/21 01:43:19;;;;;;;10.70;6.95;;;;;;;;;;5067539;28;20232;-63
2023/06/21 01:45:46;;;;;;;10.15;7.13;;;;;;;;;;5067609;28;20212;-63
2023/06/21 01:48:15;;;;;;;9.75;6.70;;;;;;;;;;5070510;28;20243;-64
2023/06/21 01:50:42;;;;;;;15.13;6.40;;;;;;;;;;5074942;28;20265;-64
2023/06/21 01:53:10;;;;;;;10.23;6.70;;;;;;;;;;5076175;28;20237;-64
2023/06/21 01:55:37;;;;;;;11.73;6.82;;;;;;;;;;5069900;28;20209;-64
2023/06/21 01:58:05;;;;;;;10.23;7.10;;;;;;;;;;5062127;28;20198;-63
2023/06/21 02:00:32;;;;;;;10.57;6.97;;;;;;;;;;5074259;28;20202;-64
2023/06/21 02:03:06;;;;;;;12.45;6.70;;;;;;;;;;5063926;28;20756;-64
2023/06/21 02:05:34;;;;;;;12.35;6.88;;;;;;;;;;5070182;28;20205;-64
2023/06/21 02:08:04;;;;;;;13.70;6.80;;;;;;;;;;5063423;28;20202;-65
2023/06/21 02:10:32;;;;;;;14.15;6.60;;;;;;;;;;5074158;28;20217;-64
2023/06/21 02:13:00;;;;;;;9.73;6.22;;;;;;;;;;5071405;28;20224;-64
2023/06/21 02:15:27;;;;;;;12.23;7.07;;;;;;;;;;5068515;28;20202;-64
2023/06/21 02:17:54;;;;;;;11.65;7.28;;;;;;;;;;5063903;28;20709;-64
2023/06/21 02:20:22;;;;;;;13.88;7.05;;;;;;;;;;5065049;28;20216;-64
2023/06/21 02:22:50;;;;;;;13.40;6.88;;;;;;;;;;5067254;28;20238;-65
2023/06/21 02:25:17;;;;;;;11.55;6.97;;;;;;;;;;5068969;28;20562;-64
2023/06/21 02:27:44;;;;;;;11.48;6.28;;;;;;;;;;5080391;28;20204;-64
2023/06/21 02:30:12;;;;;;;11.68;6.60;;;;;;;;;;5085930;28;20246;-64
2023/06/21 02:32:39;;;;;;;11.07;7.15;;;;;;;;;;5060017;28;20578;-64
2023/06/21 02:35:09;;;;;;;10.70;7.25;;;;;;;;;;5065778;28;20201;-64
2023/06/21 02:37:37;;;;;;;12.20;7.30;;;;;;;;;;5060138;28;20620;-64
2023/06/21 02:40:10;;;;;;;12.70;8.85;;;;;;;;;;5074313;28;20217;-64
2023/06/21 02:42:38;;;;;;;15.07;8.63;;;;;;;;;;5069514;28;20307;-64
2023/06/21 02:45:06;;;;;;;11.77;8.30;;;;;;;;;;5065810;28;20743;-64
2023/06/21 02:47:33;;;;;;;11.75;7.75;;;;;;;;;;5070847;28;20576;-65
2023/06/21 02:50:00;;;;;;;9.52;7.32;;;;;;;;;;5068270;28;20537;-64
2023/06/21 02:52:28;;;;;;;12.20;7.53;;;;;;;;;;5063171;28;20605;-64
2023/06/21 02:54:55;;;;;;;12.13;7.50;;;;;;;;;;5072121;28;20607;-65
2023/06/21 02:57:22;;;;;;;8.93;7.45;;;;;;;;;;5067723;28;20205;-65
2023/06/21 02:59:50;;;;;;;12.40;6.90;;;;;;;;;;5074213;28;20277;-65
2023/06/21 03:02:17;;;;;;;14.77;7.60;;;;;;;;;;5077210;28;20286;-65
2023/06/21 03:04:45;;;;;;;13.82;7.40;;;;;;;;;;5065173;28;20204;-65
2023/06/21 03:07:13;;;;;;;15.25;7.93;;;;;;;;;;5072713;28;20216;-63
2023/06/21 03:09:40;;;;;;;15.27;8.07;;;;;;;;;;5068688;28;20205;-65
2023/06/21 03:12:08;;;;;;;11.65;7.70;;;;;;;;;;5084100;28;20236;-64
2023/06/21 03:14:38;;;;;;;9.65;8.30;;;;;;;;;;5080591;28;20262;-65
2023/06/21 03:17:06;;;;;;;14.30;8.52;;;;;;;;;;5079246;28;20197;-63
2023/06/21 03:19:33;;;;;;;13.05;8.90;;;;;;;;;;5067106;28;20262;-66
2023/06/21 03:22:00;;;;;;;10.95;8.15;;;;;;;;;;5071947;28;20745;-65
2023/06/21 03:24:32;;;;;;;10.77;8.90;;;;;;;;;;5023756;28;1219922;-66
2023/06/21 03:27:00;;;;;;;10.85;8.85;;;;;;;;;;5062394;28;20213;-62
2023/06/21 03:29:27;;;;;;;10.63;8.13;;;;;;;;;;5070259;28;20208;-64
2023/06/21 03:31:54;;;;;;;12.18;8.73;;;;;;;;;;5065661;28;20713;-64
2023/06/21 03:34:22;;;;;;;13.60;9.20;;;;;;;;;;5069590;28;20423;-65
2023/06/21 03:36:53;;;;;;;14.93;10.32;;;;;;;;;;5066382;28;20275;-65
2023/06/21 03:39:20;;;;;;;13.75;9.27;;;;;;;;;;5045584;28;20327;-64
2023/06/21 03:41:47;;;;;;;13.52;9.35;;;;;;;;;;5060320;28;20205;-64
2023/06/21 03:44:15;;;;;;;10.75;8.75;;;;;;;;;;5065298;28;20250;-65
2023/06/21 03:46:42;;;;;;;15.30;9.73;;;;;;;;;;5060235;28;20618;-65
2023/06/21 03:49:09;;;;;;;9.50;8.25;;;;;;;;;;5066528;28;20217;-65
2023/06/21 03:51:37;;;;;;;12.40;9.93;;;;;;;;;;5068474;28;20224;-65
2023/06/21 03:54:04;;;;;;;12.52;8.85;;;;;;;;;;5069488;28;20201;-65
2023/06/21 03:56:32;;;;;;;11.25;9.45;;;;;;;;;;5067005;28;20201;-65
2023/06/21 03:59:00;;;;;;;12.25;9.05;;;;;;;;;;5065189;28;20229;-65
2023/06/21 04:01:27;;;;;;;12.90;8.73;;;;;;;;;;5056126;28;20205;-64
2023/06/21 04:03:55;;;;;;;14.90;8.55;;;;;;;;;;5061836;28;20231;-65
2023/06/21 04:06:23;;;;;;;12.07;8.48;;;;;;;;;;5056039;28;20228;-65
2023/06/21 04:08:50;;;;;;;13.32;8.57;;;;;;;;;;5039975;28;20255;-61
2023/06/21 04:11:17;;;;;;;9.85;8.70;;;;;;;;;;5053721;28;20340;-63
2023/06/21 04:13:45;;;;;;;12.15;8.73;;;;;;;;;;5056436;28;20421;-64
2023/06/21 04:16:15;;;;;;;11.02;9.57;;;;;;;;;;5066736;28;20671;-65
2023/06/21 04:18:42;;;;;;;14.35;9.80;;;;;;;;;;5071167;28;20263;-64
2023/06/21 04:21:10;;;;;;;10.93;9.68;;;;;;;;;;5073540;28;20208;-63
2023/06/21 04:23:37;;;;;;;12.85;9.73;;;;;;;;;;5068308;28;20228;-63
2023/06/21 04:26:06;;;;;;;10.45;9.35;;;;;;;;;;5077542;28;20209;-65
2023/06/21 04:28:33;;;;;;;16.08;10.52;;;;;;;;;;5068413;28;20205;-66
2023/06/21 04:31:02;;;;;;;13.52;10.13;;;;;;;;;;5073348;28;20819;-66
2023/06/21 04:33:30;;;;;;;12.27;9.75;;;;;;;;;;5060025;28;20782;-63
2023/06/21 04:35:57;;;;;;;13.63;10.00;;;;;;;;;;5057888;28;20304;-65
2023/06/21 04:38:25;;;;;;;13.60;9.77;;;;;;;;;;5063914;28;20382;-65
2023/06/21 04:40:52;;;;;;;12.27;10.18;;;;;;;;;;5061747;28;20213;-65
2023/06/21 04:43:24;;;;;;;12.02;9.95;;;;;;;;;;5062271;28;20271;-66
2023/06/21 04:45:52;;;;;;;13.57;10.25;;;;;;;;;;5055034;28;20198;-64
2023/06/21 04:48:24;;;;;;;10.90;9.73;;;;;;;;;;5060987;28;20655;-66
2023/06/21 04:50:51;;;;;;;12.15;9.73;;;;;;;;;;5060222;28;20656;-66
2023/06/21 04:53:19;;;;;;;11.25;9.80;;;;;;;;;;5039041;28;20218;-66
2023/06/21 04:55:46;;;;;;;13.80;10.15;;;;;;;;;;5057741;28;20197;-66
2023/06/21 04:58:15;;;;;;;14.65;10.25;;;;;;;;;;5062356;28;20645;-66
2023/06/21 05:00:43;;;;;;;14.45;10.15;;;;;;;;;;5067210;28;20205;-65
2023/06/21 05:03:10;;;;;;;11.20;10.10;;;;;;;;;;5060949;28;20588;-66
2023/06/21 05:05:37;;;;;;;11.75;9.82;;;;;;;;;;5061913;28;20269;-66
2023/06/21 05:08:05;;;;;;;15.23;11.80;;;;;;;;;;5058368;28;20206;-63
2023/06/21 05:10:32;;;;;;;13.23;10.02;;;;;;;;;;5065238;28;20917;-65
2023/06/21 05:13:03;;;;;;;13.45;10.50;;;;;;;;;;5063580;28;20679;-65
2023/06/21 05:15:30;;;;;;;13.85;9.75;;;;;;;;;;5061303;28;20219;-65
2023/06/21 05:17:58;;;;;;;14.98;10.85;;;;;;;;;;5058947;28;20632;-66
2023/06/21 05:20:26;;;;;;;16.13;11.60;;;;;;;;;;5063766;28;20212;-66
2023/06/21 05:22:55;;;;;;;14.70;12.02;;;;;;;;;;5067849;28;20690;-65
2023/06/21 05:25:22;;;;;;;13.23;11.38;;;;;;;;;;5069427;28;20210;-63
2023/06/21 05:27:50;;;;;;;13.20;10.32;;;;;;;;;;5065204;28;20220;-66
2023/06/21 05:30:18;;;;;;;16.63;11.70;;;;;;;;;;5062901;28;20220;-64
2023/06/21 05:32:46;;;;;;;16.05;10.40;;;;;;;;;;5062259;28;20233;-66
2023/06/21 05:35:13;;;;;;;12.48;11.07;;;;;;;;;;5062799;28;20251;-64
2023/06/21 05:37:40;;;;;;;13.82;10.43;;;;;;;;;;5055553;28;20333;-63
2023/06/21 05:40:09;;;;;;;12.88;10.65;;;;;;;;;;5061952;28;20206;-64
2023/06/21 05:42:36;;;;;;;14.27;11.05;;;;;;;;;;5042290;28;20708;-64
2023/06/21 05:45:04;;;;;;;10.98;9.88;;;;;;;;;;5060557;28;20683;-66
2023/06/21 05:47:32;;;;;;;15.95;10.75;;;;;;;;;;5064848;28;20198;-67
2023/06/21 05:49:59;;;;;;;16.52;10.63;;;;;;;;;;5079618;28;20213;-69
2023/06/21 05:52:26;;;;;;;13.07;10.65;;;;;;;;;;5073684;28;20696;-64
2023/06/21 05:54:54;;;;;;;11.40;10.25;;;;;;;;;;5054995;28;20691;-64
2023/06/21 05:57:21;;;;;;;12.23;10.95;;;;;;;;;;5071895;28;20247;-64
2023/06/21 05:59:49;;;;;;;14.00;10.88;;;;;;;;;;5064534;28;20876;-65
2023/06/21 06:02:16;;;;;;;12.63;10.52;;;;;;;;;;5063695;28;20225;-66
2023/06/21 06:04:44;;;;;;;15.30;11.38;;;;;;;;;;5063460;28;20240;-66
2023/06/21 06:07:12;;;;;;;13.25;11.68;;;;;;;;;;5054893;28;20205;-63
2023/06/21 06:09:40;;;;;;;14.73;11.10;;;;;;;;;;5064785;28;20210;-67
2023/06/21 06:12:07;;;;;;;15.52;10.32;;;;;;;;;;5064696;28;20240;-63
2023/06/21 06:14:36;;;;;;;10.60;9.10;;;;;;;;;;5074827;28;20292;-64
2023/06/21 06:17:05;;;;;;;10.68;9.25;;;;;;;;;;5074598;28;20201;-63
2023/06/21 06:19:32;;;;;;;13.52;8.57;;;;;;;;;;5066199;28;20251;-66
2023/06/21 06:21:59;;;;;;;12.48;9.10;;;;;;;;;;5062760;28;20252;-63
2023/06/21 06:24:27;;;;;;;11.80;8.80;;;;;;;;;;5061860;28;20209;-63
2023/06/21 06:26:54;;;;;;;10.93;9.07;;;;;;;;;;5072096;28;20288;-65
2023/06/21 06:29:22;;;;;;;10.43;8.95;;;;;;;;;;5068760;28;20219;-65
2023/06/21 06:31:51;;;;;;;10.98;8.95;;;;;;;;;;5067099;28;20302;-64
2023/06/21 06:34:20;;;;;;;10.15;8.68;;;;;;;;;;5065208;28;20233;-65
2023/06/21 06:36:47;;;;;;;11.35;9.00;;;;;;;;;;5064266;28;20194;-63
2023/06/21 06:39:33;;;;;;;11.70;8.68;;;;;;;;;;5064104;28;20693;-64
2023/06/21 06:42:00;;;;;;;12.98;8.68;;;;;;;;;;5076896;28;20225;-63
2023/06/21 06:44:27;;;;;;;10.68;8.93;;;;;;;;;;5066888;28;20605;-63
2023/06/21 06:46:54;;;;;;;11.00;8.80;;;;;;;;;;5067897;28;21306;-66
2023/06/21 06:49:22;;;;;;;12.48;8.85;;;;;;;;;;5051253;28;20220;-65
2023/06/21 06:51:49;;;;;;;7.05;6.35;;;;;;;;;;5065360;28;20229;-67
2023/06/21 06:54:17;;;;;;;9.35;6.30;;;;;;;;;;5061195;28;20313;-66
2023/06/21 06:56:44;;;;;;;6.47;5.70;;;;;;;;;;5076764;28;20251;-66
2023/06/21 06:59:11;;;;;;;6.82;6.18;;;;;;;;;;5075676;28;20198;-63
2023/06/21 07:01:39;;;;;;;6.95;5.80;;;;;;;;;;5061376;28;20244;-68
2023/06/21 07:04:06;;;;;;;7.50;6.20;;;;;;;;;;5061239;28;20210;-64
2023/06/21 07:06:34;;;;;;;6.82;6.00;;;;;;;;;;5066330;28;20301;-64
2023/06/21 07:09:02;;;;;;;6.80;6.05;;;;;;;;;;5060476;28;20198;-61
2023/06/21 07:11:30;;;;;;;6.28;5.65;;;;;;;;;;5058684;28;20552;-68
2023/06/21 07:13:57;;;;;;;7.32;5.80;;;;;;;;;;5057278;28;20275;-67
2023/06/21 07:16:24;;;;;;;6.40;5.80;;;;;;;;;;5061338;28;20233;-67
2023/06/21 07:18:52;;;;;;;6.85;5.65;;;;;;;;;;5066677;28;20201;-64
2023/06/21 07:21:19;;;;;;;7.60;6.35;;;;;;;;;;5066420;28;20239;-65
2023/06/21 07:23:50;;;;;;;6.63;5.85;;;;;;;;;;5060018;28;20593;-70
2023/06/21 07:26:17;;;;;;;7.38;5.90;;;;;;;;;;5068202;28;20211;-66
2023/06/21 07:28:45;;;;;;;7.03;6.28;;;;;;;;;;5070357;28;20209;-64
2023/06/21 07:31:12;;;;;;;6.18;5.55;;;;;;;;;;5064603;28;20580;-64
2023/06/21 07:33:39;;;;;;;7.72;6.00;;;;;;;;;;5061104;28;20287;-66
2023/06/21 07:36:07;;;;;;;9.90;5.90;;;;;;;;;;5047777;28;20293;-64
2023/06/21 07:38:34;;;;;;;7.13;6.43;;;;;;;;;;5063387;28;20251;-68
2023/06/21 07:41:01;;;;;;;8.82;6.90;;;;;;;;;;5067869;28;20197;-67
2023/06/21 07:43:29;;;;;;;9.00;6.60;;;;;;;;;;5062084;28;20240;-65
2023/06/21 07:45:56;;;;;;;7.80;6.60;;;;;;;;;;5066717;28;20575;-63
2023/06/21 07:48:40;;;;;;;7.93;6.90;;;;;;;;;;5057590;28;20202;-63
2023/06/21 07:51:07;;;;;;;6.68;5.50;;;;;;;;;;5066483;28;20252;-64
2023/06/21 07:53:34;;;;;;;6.45;5.72;;;;;;;;;;5076353;28;20495;-63
2023/06/21 07:56:02;;;;;;;7.57;5.68;;;;;;;;;;5078037;28;20193;-67
2023/06/21 07:58:29;;;;;;;6.03;5.25;;;;;;;;;;5066470;28;20197;-65
2023/06/21 08:00:56;;;;;;;7.10;4.97;;;;;;;;;;5064444;28;20687;-63
2023/06/21 08:03:24;;;;;;;8.38;5.38;;;;;;;;;;5059245;28;21240;-70
2023/06/21 08:05:51;;;;;;;5.32;4.82;;;;;;;;;;5045458;28;20699;-62
2023/06/21 08:08:20;;;;;;;5.85;5.35;;;;;;;;;;5065899;28;20210;-63
2023/06/21 08:10:47;;;;;;;6.65;5.82;;;;;;;;;;5064512;28;20632;-62
2023/06/21 08:13:18;;;;;;;6.20;5.35;;;;;;;;;;5063714;28;20707;-66
2023/06/21 08:15:46;;;;;;;5.93;4.93;;;;;;;;;;5066921;28;20198;-65
2023/06/21 08:18:13;;;;;;;5.53;5.03;;;;;;;;;;5064349;28;20226;-65
2023/06/21 08:20:41;;;;;;;5.68;4.93;;;;;;;;;;5067889;28;20208;-67
2023/06/21 08:23:08;;;;;;;7.30;5.03;;;;;;;;;;5072738;28;20232;-63
2023/06/21 08:25:36;;;;;;;5.43;4.90;;;;;;;;;;5064579;28;20209;-64
2023/06/21 08:28:04;;;;;;;7.13;5.20;;;;;;;;;;5058522;28;20279;-64
2023/06/21 08:30:31;;;;;;;10.50;6.07;;;;;;;;;;5058246;28;20208;-63
2023/06/21 08:32:59;;;;;;;15.93;4.30;;;;;;;;;;5065482;28;20233;-64
2023/06/21 08:35:26;;;;;;;31.58;5.68;;;;;;;;;;5062264;28;20201;-67
2023/06/21 08:37:58;;;;;;;27.88;4.85;;;;;;;;;;5071281;28;20242;-67
2023/06/21 08:40:38;;;;;;;17.30;4.82;;;;;;;;;;5073534;28;20478;-64
2023/06/21 08:43:05;;;;;;;17.83;4.30;;;;;;;;;;5044376;28;20226;-64
2023/06/21 08:45:33;;;;;;;19.23;5.05;;;;;;;;;;5044248;28;20214;-64
2023/06/21 08:48:01;;;;;;;12.43;4.53;;;;;;;;;;5070375;28;20205;-65
2023/06/21 08:50:29;;;;;;;14.45;4.35;;;;;;;;;;5065043;28;20201;-65
2023/06/21 08:53:01;;;;;;;13.63;3.92;;;;;;;;;;5076787;28;20232;-65
2023/06/21 08:55:30;;;;;;;14.02;4.50;;;;;;;;;;5064687;28;20190;-63
2023/06/21 08:57:59;;;;;;;13.20;4.68;;;;;;;;;;5060037;28;20736;-65
2023/06/21 09:00:29;;;;;;;12.40;4.05;;;;;;;;;;5075874;28;20200;-64
2023/06/21 09:03:02;;;;;;;15.23;4.38;;;;;;;;;;5054588;28;20231;-64
2023/06/21 09:05:33;;;;;;;16.25;4.65;;;;;;;;;;5052782;28;20301;-64
2023/06/21 09:08:02;;;;;;;14.35;4.78;;;;;;;;;;5074517;28;20225;-65
2023/06/21 09:10:34;;;;;;;14.43;4.53;;;;;;;;;;5057397;28;20206;-64
2023/06/21 09:13:02;;;;;;;9.60;4.53;;;;;;;;;;5059817;28;20735;-64
2023/06/21 09:15:30;;;;;;;13.27;4.55;;;;;;;;;;5060582;28;20198;-65
2023/06/21 09:17:57;;;;;;;15.23;4.40;;;;;;;;;;5068880;28;20209;-64
2023/06/21 09:20:28;;;;;;;17.42;4.35;;;;;;;;;;5073974;28;20620;-64
2023/06/21 09:22:59;;;;;;;14.40;4.38;;;;;;;;;;5064737;28;20706;-64
2023/06/21 09:25:27;;;;;;;13.35;4.28;;;;;;;;;;5063245;28;20209;-65
2023/06/21 09:27:57;;;;;;;13.40;4.68;;;;;;;;;;5066333;28;20205;-65
2023/06/21 09:30:28;;;;;;;13.30;4.43;;;;;;;;;;5063910;28;20211;-65
2023/06/21 09:33:05;;;;;;;16.13;4.30;;;;;;;;;;5067613;28;20240;-65
2023/06/21 09:35:33;;;;;;;13.75;4.68;;;;;;;;;;5061799;28;20240;-62
2023/06/21 09:38:00;;;;;;;18.02;4.82;;;;;;;;;;5068972;28;20206;-64
2023/06/21 09:40:27;;;;;;;13.50;5.03;;;;;;;;;;5056430;28;20544;-65
2023/06/21 09:42:55;;;;;;;18.92;5.35;;;;;;;;;;5058249;28;20229;-64
2023/06/21 09:45:22;;;;;;;17.92;4.82;;;;;;;;;;5065817;28;23150;-64
2023/06/21 09:47:50;;;;;;;13.05;4.57;;;;;;;;;;5068226;28;20218;-64
2023/06/21 09:50:18;;;;;;;16.75;4.45;;;;;;;;;;5040353;28;20278;-64
2023/06/21 09:52:45;;;;;;;17.52;4.97;;;;;;;;;;5081740;28;20256;-64
2023/06/21 09:55:16;;;;;;;14.30;5.47;;;;;;;;;;5065613;28;20548;-65
2023/06/21 09:57:44;;;;;;;12.77;4.53;;;;;;;;;;5073334;28;20629;-64
2023/06/21 10:00:12;;;;;;;15.02;5.10;;;;;;;;;;5073585;28;20250;-64
2023/06/21 10:02:40;;;;;;;16.42;5.05;;;;;;;;;;5072391;28;20221;-64
2023/06/21 10:05:18;;;;;;;20.30;5.00;;;;;;;;;;5059265;28;20217;-64
2023/06/21 10:07:46;;;;;;;12.50;4.40;;;;;;;;;;5061056;28;20693;-63
2023/06/21 10:10:13;;;;;;;17.95;4.40;;;;;;;;;;5065209;28;20213;-64
2023/06/21 10:12:51;;;;;;;14.55;4.55;;;;;;;;;;5073788;28;20225;-64
2023/06/21 10:15:22;;;;;;;12.95;4.20;;;;;;;;;;5053236;28;20297;-63
2023/06/21 10:17:51;;;;;;;12.20;4.55;;;;;;;;;;5067596;28;20198;-63
2023/06/21 10:20:31;;;;;;;15.23;4.38;;;;;;;;;;5059776;28;20660;-63
2023/06/21 10:22:59;;;;;;;15.73;4.57;;;;;;;;;;5061143;28;20221;-63
2023/06/21 10:25:27;;;;;;;15.35;4.60;;;;;;;;;;5070323;28;20209;-63
2023/06/21 10:27:59;;;;;;;15.02;4.60;;;;;;;;;;5044167;28;20633;-63
2023/06/21 10:30:28;;;;;;;15.23;4.57;;;;;;;;;;5062495;28;20221;-64
2023/06/21 10:32:56;;;;;;;9.40;4.47;;;;;;;;;;5058530;28;20308;-64
2023/06/21 10:35:26;;;;;;;13.85;4.35;;;;;;;;;;5062263;28;20300;-63
2023/06/21 10:37:56;;;;;;;9.45;4.28;;;;;;;;;;5066926;28;20220;-64
2023/06/21 10:40:25;;;;;;;14.02;4.55;;;;;;;;;;5063965;28;20576;-64
2023/06/21 10:42:55;;;;;;;14.48;4.50;;;;;;;;;;5065360;28;20308;-63
2023/06/21 10:45:23;;;;;;;13.07;5.00;;;;;;;;;;5073850;28;20675;-65
2023/06/21 10:47:50;;;;;;;12.52;4.20;;;;;;;;;;5071543;28;20197;-64
2023/06/21 10:50:18;;;;;;;12.25;4.10;;;;;;;;;;5064298;28;20719;-64
2023/06/21 10:52:47;;;;;;;12.82;4.03;;;;;;;;;;5069901;28;20698;-63
2023/06/21 10:55:14;;;;;;;17.33;4.43;;;;;;;;;;5068767;28;20781;-63
2023/06/21 10:57:42;;;;;;;12.90;4.50;;;;;;;;;;5086061;28;20312;-62
2023/06/21 11:00:10;;;;;;;13.88;4.30;;;;;;;;;;5069729;28;20201;-65
2023/06/21 11:02:37;;;;;;;10.10;3.97;;;;;;;;;;5065302;28;20267;-64
2023/06/21 11:05:14;;;;;;;13.55;4.03;;;;;;;;;;5058602;28;20672;-66
2023/06/21 11:07:49;;;;;;;9.43;4.07;;;;;;;;;;5061775;28;20202;-66
2023/06/21 11:10:37;;;;;;;14.40;5.18;;;;;;;;;;5066650;28;20639;-66
2023/06/21 11:13:04;;;;;;;12.15;3.92;;;;;;;;;;5059286;28;20633;-65
2023/06/21 11:15:32;;;;;;;13.15;4.35;;;;;;;;;;5057090;28;20253;-66
2023/06/21 11:18:05;;;;;;;15.20;4.20;;;;;;;;;;5060539;28;20200;-65
2023/06/21 11:20:46;;;;;;;10.77;4.43;;;;;;;;;;5059502;28;20247;-66
2023/06/21 11:23:25;;;;;;;11.00;4.45;;;;;;;;;;5042123;28;20593;-66
2023/06/21 11:26:13;;;;;;;11.00;4.20;;;;;;;;;;5059469;28;20682;-66
2023/06/21 11:28:44;;;;;;;13.80;4.32;;;;;;;;;;5064859;28;20206;-66
2023/06/21 11:31:13;;;;;;;8.57;4.28;;;;;;;;;;5067750;28;20198;-65
2023/06/21 11:33:48;;;;;;;7.80;3.92;;;;;;;;;;5064218;28;20643;-66
2023/06/21 11:36:17;;;;;;;8.63;3.70;;;;;;;;;;5064630;28;20228;-64
2023/06/21 11:38:48;;;;;;;9.07;3.72;;;;;;;;;;5079009;28;20681;-64
2023/06/21 11:41:40;;;;;;;9.32;3.88;;;;;;;;;;5063981;28;20208;-65
2023/06/21 11:44:08;;;;;;;12.10;4.53;;;;;;;;;;5062072;28;20252;-65
2023/06/21 11:46:36;;;;;;;11.48;4.03;;;;;;;;;;5060480;28;20212;-65
2023/06/21 11:49:03;;;;;;;7.10;3.58;;;;;;;;;;5056870;28;20217;-65
2023/06/21 11:51:31;;;;;;;8.63;3.47;;;;;;;;;;5069153;28;20209;-65
2023/06/21 11:54:01;;;;;;;8.25;3.63;;;;;;;;;;5057759;28;20308;-65
2023/06/21 11:56:32;;;;;;;8.30;3.53;;;;;;;;;;5064355;28;20205;-65
2023/06/21 11:59:00;;;;;;;6.60;3.25;;;;;;;;;;5064406;28;20217;-65
2023/06/21 12:01:27;;;;;;;11.05;4.13;;;;;;;;;;5059169;28;20202;-65
2023/06/21 12:03:58;;;;;;;6.88;3.67;;;;;;;;;;5062874;28;20303;-66
2023/06/21 12:06:26;;;;;;;5.53;3.45;;;;;;;;;;5068585;28;20212;-65
2023/06/21 12:08:57;;;;;;;8.32;3.53;;;;;;;;;;5071758;28;20301;-65
2023/06/21 12:11:26;;;;;;;6.63;3.15;;;;;;;;;;5080466;28;20649;-64
2023/06/21 12:13:53;;;;;;;4.18;2.80;;;;;;;;;;5074313;28;20221;-65
2023/06/21 12:16:21;;;;;;;7.18;3.30;;;;;;;;;;5084580;28;20205;-65
2023/06/21 12:18:48;;;;;;;6.35;3.25;;;;;;;;;;5061388;28;20208;-65
2023/06/21 12:21:15;;;;;;;5.50;3.40;;;;;;;;;;5071671;28;20216;-65
2023/06/21 12:23:43;;;;;;;6.30;3.17;;;;;;;;;;5064403;28;20271;-66
2023/06/21 12:26:17;;;;;;;5.25;3.20;;;;;;;;;;5075302;28;20205;-66
2023/06/21 12:28:47;;;;;;;5.85;3.03;;;;;;;;;;5066812;28;20219;-66
2023/06/21 12:31:16;;;;;;;6.07;3.55;;;;;;;;;;5064778;28;20206;-66
2023/06/21 12:33:43;;;;;;;8.02;3.42;;;;;;;;;;5059485;28;20670;-66
2023/06/21 12:36:14;;;;;;;6.32;3.15;;;;;;;;;;5045296;28;20282;-65
2023/06/21 12:38:49;;;;;;;7.43;3.53;;;;;;;;;;5041989;28;20293;-66
2023/06/21 12:41:16;;;;;;;9.57;3.92;;;;;;;;;;5070254;28;20205;-66
2023/06/21 12:43:45;;;;;;;5.40;3.38;;;;;;;;;;5066348;28;20623;-66
2023/06/21 12:46:13;;;;;;;8.98;4.50;;;;;;;;;;5062707;28;20293;-65
2023/06/21 12:48:50;;;;;;;7.28;3.70;;;;;;;;;;5060811;28;20663;-65
2023/06/21 12:51:21;;;;;;;7.43;3.45;;;;;;;;;;5066371;28;20201;-66
2023/06/21 12:53:53;;;;;;;6.28;3.25;;;;;;;;;;5068797;28;20339;-66
2023/06/21 12:56:24;;;;;;;4.22;3.50;;;;;;;;;;5075332;28;20205;-66
2023/06/21 12:58:52;;;;;;;5.85;3.15;;;;;;;;;;5082937;28;20789;-66
2023/06/21 13:01:22;;;;;;;7.43;3.47;;;;;;;;;;5062664;28;20198;-66
2023/06/21 13:03:55;;;;;;;6.25;3.25;;;;;;;;;;5075719;28;20228;-66
2023/06/21 13:06:25;;;;;;;6.88;3.15;;;;;;;;;;5075795;28;20241;-66
2023/06/21 13:08:56;;;;;;;3.35;2.90;;;;;;;;;;5070368;28;20533;-67
2023/06/21 13:11:24;;;;;;;4.22;2.90;;;;;;;;;;5056194;28;20216;-65
2023/06/21 13:13:53;;;;;;;3.45;2.63;;;;;;;;;;5061335;28;20229;-64
2023/06/21 13:16:21;;;;;;;4.78;2.88;;;;;;;;;;5062911;28;20193;-65
2023/06/21 13:18:49;;;;;;;3.67;2.58;;;;;;;;;;5059586;28;20201;-66
2023/06/21 13:21:18;;;;;;;3.88;2.88;;;;;;;;;;5056390;28;20198;-65
2023/06/21 13:23:46;;;;;;;4.07;2.95;;;;;;;;;;5035502;28;20234;-64
2023/06/21 13:26:13;;;;;;;5.40;2.95;;;;;;;;;;5048503;28;20216;-66
2023/06/21 13:28:41;;;;;;;5.55;3.10;;;;;;;;;;5055177;28;20213;-66
2023/06/21 13:31:08;;;;;;;4.18;3.45;;;;;;;;;;5066557;28;20208;-66
2023/06/21 13:33:35;;;;;;;5.10;3.10;;;;;;;;;;5073142;28;20235;-65
2023/06/21 13:36:03;;;;;;;4.05;2.97;;;;;;;;;;5079731;28;20209;-65
2023/06/21 13:38:33;;;;;;;5.15;3.00;;;;;;;;;;5066614;28;20205;-64
2023/06/21 13:41:01;;;;;;;4.70;2.90;;;;;;;;;;5076785;28;20258;-66
2023/06/21 13:43:29;;;;;;;4.85;2.83;;;;;;;;;;5064138;28;20295;-66
2023/06/21 13:45:56;;;;;;;4.68;3.08;;;;;;;;;;5060433;28;20816;-67
2023/06/21 13:48:24;;;;;;;3.53;2.90;;;;;;;;;;5059511;28;20212;-64
2023/06/21 13:50:51;;;;;;;3.38;2.90;;;;;;;;;;5067265;28;20580;-65
2023/06/21 13:53:21;;;;;;;5.40;3.05;;;;;;;;;;5066138;28;20221;-65
2023/06/21 13:55:49;;;;;;;4.20;3.10;;;;;;;;;;5065662;28;20210;-65
2023/06/21 13:58:16;;;;;;;3.55;2.80;;;;;;;;;;5069230;28;20202;-65
2023/06/21 14:00:45;;;;;;;3.85;2.88;;;;;;;;;;5062776;28;20205;-65
2023/06/21 14:03:12;;;;;;;6.50;4.97;;;;;;;;;;5058923;28;20226;-65
2023/06/21 14:05:39;;;;;;;5.30;3.08;;;;;;;;;;5060276;28;20255;-65
2023/06/21 14:08:07;;;;;;;3.05;2.67;;;;;;;;;;5063031;28;20209;-65
2023/06/21 14:10:34;;;;;;;5.00;3.05;;;;;;;;;;5071303;28;20193;-64
2023/06/21 14:13:02;;;;;;;3.60;2.60;;;;;;;;;;5065772;28;20244;-64
2023/06/21 14:15:29;;;;;;;4.10;2.65;;;;;;;;;;5073141;28;20229;-64
2023/06/21 14:18:02;;;;;;;4.38;3.05;;;;;;;;;;5067466;28;20443;-64
2023/06/21 14:20:30;;;;;;;4.85;3.30;;;;;;;;;;5060247;28;20206;-65
2023/06/21 14:22:58;;;;;;;3.30;2.70;;;;;;;;;;5055279;28;20293;-64
2023/06/21 14:25:25;;;;;;;3.63;2.67;;;;;;;;;;5057616;28;20206;-65
2023/06/21 14:27:53;;;;;;;4.75;3.15;;;;;;;;;;5055578;28;20287;-65
2023/06/21 14:30:20;;;;;;;6.03;3.90;;;;;;;;;;5070201;28;20244;-65
2023/06/21 14:32:48;;;;;;;7.65;3.60;;;;;;;;;;5061320;28;20226;-65
2023/06/21 14:35:15;;;;;;;3.90;2.63;;;;;;;;;;5058086;28;20237;-65
2023/06/21 14:37:47;;;;;;;2.70;2.50;;;;;;;;;;5060496;28;20534;-65
2023/06/21 14:40:14;;;;;;;2.97;2.55;;;;;;;;;;5065048;28;20652;-65
2023/06/21 14:42:42;;;;;;;5.75;3.50;;;;;;;;;;5053560;28;20292;-65